Sunday, December 21, 2014, 11:54 PM EST

KNHK, Nas Patuxent River Md

Location: Patuxent River, MD, United States Lat: 38.3
Local Time: 11:54 PM EST ( 4:54 GMT) Lon: -76.4
Time Zone: US/Eastern Elev: 39 ft

Show me the last for .
Show Decoded

2014-12-21 22:52 METAR KNHK 220352Z AUTO 00000KT 10SM CLR M03/M04 A3033 RMK AO2 SLP272 T10281044
                 =
2014-12-21 21:52 METAR KNHK 220252Z AUTO 00000KT 10SM CLR M03/M06 A3032 RMK AO2 SLP269 T10331061
                 58001 =
2014-12-21 20:52 METAR KNHK 220152Z AUTO 00000KT 9SM CLR M03/M05 A3033 RMK AO2 SLP269 T10281050 =
2014-12-21 19:52 METAR KNHK 220052Z AUTO 00000KT 9SM CLR M03/M05 A3034 RMK AO2 SLP272 T10281050 =
2014-12-21 18:52 METAR KNHK 212352Z AUTO 00000KT 9SM CLR M02/M05 A3033 RMK AO2 SLP270 T10221050
                 10061 21022 51016 =
2014-12-21 17:52 METAR KNHK 212252Z 00000KT 10SM FEW250 00/M04 A3032 RMK AO2 SLP266 T00001039 =
2014-12-21 16:52 METAR KNHK 212152Z 00000KT 10SM FEW250 02/M04 A3032 RMK AO2 SLP266 T00171039 =
2014-12-21 15:52 METAR KNHK 212052Z 04007KT 9SM CLR 04/M03 A3028 RMK AO2 SLP253 T00391028 56014 =
2014-12-21 14:52 METAR KNHK 211952Z 07006KT 9SM CLR 05/M02 A3029 RMK AO2 SLP256 T00501022 =
2014-12-21 13:52 METAR KNHK 211852Z 34007KT 10SM FEW070 06/M05 A3030 RMK AO2 SLP261 T00561050 =
2014-12-21 12:52 METAR KNHK 211752Z 33003KT 10SM SCT070 05/M02 A3032 RMK AO2 SLP267 T00501022
                 10050 20011 58012 =
2014-12-21 11:52 METAR KNHK 211652Z 00000KT 10SM BKN070 04/M02 A3034 RMK AO2 SLP274 T00391022 =
2014-12-21 10:52 METAR KNHK 211552Z 00000KT 10SM OVC070 03/M03 A3036 RMK AO2 SLP280 T00331028 =
2014-12-21 09:52 METAR KNHK 211452Z 36005KT 10SM OVC070 03/M02 A3036 RMK AO2 SLP280 T00281022
                 53008 =
2014-12-21 08:52 METAR KNHK 211352Z 35005KT 10SM OVC070 02/M03 A3034 RMK AO2 SLP275 T00221028 =
2014-12-21 07:52 METAR KNHK 211252Z 31003KT 10SM OVC070 02/M03 A3034 RMK AO2 SLP273 T00171033 =
2014-12-21 07:06 METAR KNHK 211206Z 33005KT 10SM OVC070 01/M03 A3033 RMK AO2 T00111028 =
2014-12-21 06:52 METAR KNHK 211152Z AUTO 29004KT 10SM OVC070 01/M03 A3033 RMK AO2 SLP272
                 T00111033 10011 21017 53010 =
2014-12-21 05:52 METAR KNHK 211052Z AUTO 29005KT 10SM OVC075 01/M04 A3031 RMK AO2 SLP265
                 T00061039 =
2014-12-21 04:52 METAR KNHK 210952Z AUTO 29003KT 10SM OVC075 01/M03 A3030 RMK AO2 SLP259
                 T00111033 =
2014-12-21 03:52 METAR KNHK 210852Z AUTO 29004KT 10SM OVC080 01/M03 A3030 RMK AO2 SLP261
                 T00061033 50002 =
2014-12-21 02:52 METAR KNHK 210752Z AUTO 00000KT 10SM OVC080 00/M03 A3030 RMK AO2 SLP262
                 T00001033 =
2014-12-21 01:52 METAR KNHK 210652Z AUTO 29003KT 10SM OVC080 M01/M04 A3031 RMK AO2 SLP262
                 T10061039 =
2014-12-21 00:52 METAR KNHK 210552Z AUTO 27004KT 10SM OVC085 M02/M04 A3030 RMK AO2 SLP259
                 T10171044 10011 21039 58002 =

Support USWX by starting your Amazon purchase here.